Time;durP1;ratioP1;P1;durP2;ratioP2;P2;SDS_P1;SDS_P2;PMS_P1;PMS_P2;Temp;Humidity;BMP_temperature;BMP_pressure;BME280_temperature;BME280_humidity;BME280_pressure;Samples;Min_cycle;Max_cycle;Signal;HPM_P1;HPM_P2
2022/12/03 00:01:57;;;;;;;17.40;10.23;;;22.00;60.80;;;;;;5071843;28;20497;-71
2022/12/03 00:04:23;;;;;;;18.80;11.35;;;22.10;60.60;;;;;;5071656;28;20036;-71
2022/12/03 00:06:50;;;;;;;16.00;10.30;;;22.10;60.50;;;;;;5071863;28;20032;-71
2022/12/03 00:09:15;;;;;;;15.80;9.85;;;22.20;60.30;;;;;;5060753;28;20044;-71
2022/12/03 00:11:42;;;;;;;17.30;9.07;;;22.10;60.00;;;;;;5092035;28;20027;-71
2022/12/03 00:14:08;;;;;;;15.38;9.50;;;22.10;59.90;;;;;;5091257;28;20032;-71
2022/12/03 00:16:34;;;;;;;17.17;8.98;;;22.10;59.60;;;;;;5091149;28;20089;-71
2022/12/03 00:19:00;;;;;;;12.02;8.95;;;22.20;59.40;;;;;;5091133;28;20043;-71
2022/12/03 00:21:26;;;;;;;13.13;7.82;;;22.10;59.30;;;;;;5091072;28;20036;-71
2022/12/03 00:23:52;;;;;;;13.77;8.10;;;22.00;59.00;;;;;;5091069;28;20028;-71
2022/12/03 00:26:18;;;;;;;13.23;7.80;;;22.10;58.90;;;;;;5090994;28;20055;-71
2022/12/03 00:28:44;;;;;;;13.15;8.73;;;22.00;58.70;;;;;;5091667;28;20039;-71
2022/12/03 00:31:10;;;;;;;10.43;7.55;;;22.20;58.70;;;;;;5091412;28;20166;-71
2022/12/03 00:33:36;;;;;;;14.40;7.38;;;22.00;58.50;;;;;;5091300;28;20027;-72
2022/12/03 00:36:02;;;;;;;11.40;7.40;;;21.90;58.50;;;;;;5091188;28;20032;-71
2022/12/03 00:38:28;;;;;;;12.85;8.43;;;21.90;58.40;;;;;;5091042;28;20111;-72
2022/12/03 00:40:54;;;;;;;10.70;6.60;;;22.00;58.60;;;;;;5091047;28;20043;-72
2022/12/03 00:43:20;;;;;;;12.10;7.70;;;22.00;58.50;;;;;;5091119;28;20077;-72
2022/12/03 00:45:46;;;;;;;13.30;8.27;;;21.90;58.50;;;;;;5071984;28;20059;-71
2022/12/03 00:48:12;;;;;;;15.05;7.22;;;22.10;58.40;;;;;;5071738;28;20370;-71
2022/12/03 00:50:38;;;;;;;10.63;6.80;;;22.00;58.20;;;;;;5091353;28;20043;-71
2022/12/03 00:53:03;;;;;;;12.30;6.40;;;22.20;58.20;;;;;;5089615;28;20031;-71
2022/12/03 00:55:29;;;;;;;16.27;6.43;;;22.10;58.20;;;;;;5091072;28;20034;-72
2022/12/03 00:57:55;;;;;;;11.18;5.85;;;22.00;58.00;;;;;;5091372;28;20058;-72
2022/12/03 01:00:23;;;;;;;12.52;6.82;;;22.00;57.90;;;;;;5091108;28;20038;-72
2022/12/03 01:02:51;;;;;;;10.73;6.13;;;22.10;57.80;;;;;;5090795;28;20039;-72
2022/12/03 01:05:18;;;;;;;12.15;6.57;;;22.10;57.80;;;;;;5090829;28;20081;-72
2022/12/03 01:07:45;;;;;;;10.85;6.10;;;22.00;57.60;;;;;;5091102;28;20438;-71
2022/12/03 01:10:12;;;;;;;9.30;6.15;;;22.00;57.50;;;;;;5077676;28;20139;-72
2022/12/03 01:12:38;;;;;;;10.77;6.18;;;21.90;57.60;;;;;;5035077;28;20041;-72
2022/12/03 01:15:05;;;;;;;11.07;6.05;;;21.80;57.50;;;;;;5070540;28;20127;-72
2022/12/03 01:17:31;;;;;;;11.98;6.47;;;21.80;57.50;;;;;;5070579;28;20119;-72
2022/12/03 01:19:58;;;;;;;13.98;6.57;;;21.70;57.50;;;;;;5067500;28;20127;-72
2022/12/03 01:22:24;;;;;;;11.02;5.78;;;21.70;57.40;;;;;;5070755;28;20032;-72
2022/12/03 01:24:50;;;;;;;12.10;6.75;;;21.70;57.50;;;;;;5018548;28;20044;-72
2022/12/03 01:27:16;;;;;;;8.88;6.20;;;21.70;57.40;;;;;;5070734;28;20043;-71
2022/12/03 01:29:42;;;;;;;12.77;6.22;;;21.80;57.30;;;;;;5070901;28;20037;-72
2022/12/03 01:32:15;;;;;;;11.60;5.82;;;21.70;57.30;;;;;;5034972;28;20056;-71
2022/12/03 01:34:49;;;;;;;11.57;5.43;;;21.70;57.10;;;;;;5070356;28;20031;-71
2022/12/03 01:37:15;;;;;;;13.13;6.05;;;21.70;57.00;;;;;;5070629;28;20056;-71
2022/12/03 01:39:42;;;;;;;8.63;5.78;;;21.80;56.90;;;;;;5070540;28;20041;-71
2022/12/03 01:42:13;;;;;;;12.93;6.90;;;21.70;56.80;;;;;;5070054;28;20024;-71
2022/12/03 01:44:40;;;;;;;10.20;6.43;;;21.70;56.80;;;;;;5069705;28;20020;-71
2022/12/03 01:47:12;;;;;;;13.50;6.60;;;21.80;56.70;;;;;;5052342;28;20086;-71
2022/12/03 01:49:42;;;;;;;9.67;5.90;;;21.70;56.60;;;;;;5070274;28;20107;-71
2022/12/03 01:52:15;;;;;;;9.00;5.68;;;21.70;56.60;;;;;;5073843;28;20036;-71
2022/12/03 01:54:46;;;;;;;11.52;6.18;;;21.60;56.50;;;;;;5074189;28;20187;-72
2022/12/03 01:57:23;;;;;;;12.52;6.60;;;21.60;56.50;;;;;;5073901;28;20108;-71
2022/12/03 01:59:51;;;;;;;12.55;5.55;;;21.70;56.50;;;;;;5073906;28;20146;-72
2022/12/03 02:02:29;;;;;;;11.20;6.32;;;21.60;56.40;;;;;;5074001;28;20036;-71
2022/12/03 02:04:57;;;;;;;11.60;5.80;;;21.40;56.30;;;;;;5070994;28;20097;-71
2022/12/03 02:07:30;;;;;;;9.68;6.65;;;21.50;56.40;;;;;;5053781;28;20041;-71
2022/12/03 02:09:59;;;;;;;14.23;6.57;;;21.50;56.40;;;;;;5018567;28;20049;-71
2022/12/03 02:12:35;;;;;;;10.05;5.90;;;21.40;56.30;;;;;;5035726;28;20427;-69
2022/12/03 02:15:03;;;;;;;10.23;5.45;;;21.50;56.30;;;;;;5053689;28;20098;-71
2022/12/03 02:17:29;;;;;;;12.30;6.00;;;21.40;56.10;;;;;;5054135;28;20412;-71
2022/12/03 02:19:56;;;;;;;12.20;5.72;;;21.60;56.10;;;;;;5053764;28;20047;-71
2022/12/03 02:22:36;;;;;;;8.15;5.63;;;21.50;56.00;;;;;;5018034;28;20041;-71
2022/12/03 02:25:04;;;;;;;11.20;6.10;;;21.60;55.80;;;;;;5053385;28;20045;-71
2022/12/03 02:27:30;;;;;;;11.05;6.18;;;21.60;55.70;;;;;;5019268;28;20033;-71
2022/12/03 02:29:56;;;;;;;7.78;4.95;;;21.50;55.70;;;;;;5053633;28;20047;-71
2022/12/03 02:32:23;;;;;;;12.75;5.68;;;21.50;55.60;;;;;;5053374;28;20032;-71
2022/12/03 02:34:50;;;;;;;12.30;6.30;;;21.60;55.50;;;;;;5053354;28;20037;-72
2022/12/03 02:37:36;;;;;;;8.70;5.38;;;21.50;55.40;;;;;;5053312;28;20212;-71
2022/12/03 02:40:07;;;;;;;9.48;4.90;;;21.50;55.40;;;;;;5053374;28;20037;-72
2022/12/03 02:42:35;;;;;;;9.88;5.80;;;21.50;55.40;;;;;;5053308;28;20116;-71
2022/12/03 02:45:15;;;;;;;10.30;5.68;;;21.40;55.30;;;;;;5052930;28;20037;-71
2022/12/03 02:47:44;;;;;;;8.85;5.43;;;21.30;55.30;;;;;;5052950;28;20482;-71
2022/12/03 02:50:14;;;;;;;9.25;5.38;;;21.30;55.30;;;;;;5052961;28;20047;-71
2022/12/03 02:52:42;;;;;;;11.30;5.68;;;21.40;55.30;;;;;;5052943;28;20044;-71
2022/12/03 02:55:09;;;;;;;10.32;5.25;;;21.30;55.40;;;;;;5052587;28;20031;-72
2022/12/03 02:57:36;;;;;;;9.30;5.47;;;21.30;55.40;;;;;;5052528;28;20041;-71
2022/12/03 03:00:05;;;;;;;13.73;6.68;;;21.30;55.40;;;;;;5051989;28;20075;-71
2022/12/03 03:02:31;;;;;;;9.65;6.22;;;21.20;55.20;;;;;;5051193;28;20037;-71
2022/12/03 03:04:58;;;;;;;12.13;6.05;;;21.30;55.30;;;;;;5051814;28;20090;-71
2022/12/03 03:07:24;;;;;;;9.32;6.38;;;21.30;55.20;;;;;;5052139;28;20052;-71
2022/12/03 03:09:50;;;;;;;9.90;5.60;;;21.20;55.00;;;;;;5052445;28;20169;-72
2022/12/03 03:12:16;;;;;;;11.35;6.38;;;21.40;55.00;;;;;;5052235;28;20029;-71
2022/12/03 03:14:42;;;;;;;9.55;5.43;;;21.40;54.90;;;;;;5034434;28;20029;-71
2022/12/03 03:17:09;;;;;;;13.95;6.95;;;21.30;54.90;;;;;;5052407;28;20055;-72
2022/12/03 03:19:35;;;;;;;9.80;6.53;;;21.30;54.80;;;;;;5052486;28;20095;-71
2022/12/03 03:22:01;;;;;;;10.57;5.95;;;21.40;54.70;;;;;;5052405;28;20116;-71
2022/12/03 03:24:27;;;;;;;11.57;6.05;;;21.40;54.60;;;;;;5053919;28;20033;-72
2022/12/03 03:26:53;;;;;;;8.05;5.43;;;21.40;54.60;;;;;;5052317;28;20032;-72
2022/12/03 03:29:19;;;;;;;9.88;6.00;;;21.40;54.40;;;;;;5051923;28;20108;-71
2022/12/03 03:31:46;;;;;;;12.02;5.43;;;21.30;54.40;;;;;;5051952;28;20064;-71
2022/12/03 03:34:13;;;;;;;10.32;5.82;;;21.20;54.30;;;;;;5051814;28;20047;-72
2022/12/03 03:36:39;;;;;;;11.63;5.57;;;21.30;54.50;;;;;;5051989;28;20032;-71
2022/12/03 03:39:05;;;;;;;8.75;5.50;;;21.20;54.40;;;;;;5052177;28;20492;-72
2022/12/03 03:41:33;;;;;;;9.10;5.40;;;21.30;54.40;;;;;;5052036;28;20031;-72
2022/12/03 03:43:59;;;;;;;12.25;5.65;;;21.20;54.20;;;;;;5052007;28;20485;-72
2022/12/03 03:46:27;;;;;;;11.93;5.53;;;21.00;54.20;;;;;;5052100;28;20037;-72
2022/12/03 03:48:53;;;;;;;15.70;5.55;;;21.10;54.40;;;;;;5052112;28;20057;-71
2022/12/03 03:51:19;;;;;;;11.55;5.55;;;21.10;54.30;;;;;;5052034;28;20043;-71
2022/12/03 03:53:47;;;;;;;10.18;5.85;;;21.10;54.40;;;;;;5033872;28;20123;-72
2022/12/03 03:56:15;;;;;;;11.23;5.70;;;21.20;54.30;;;;;;5051786;28;20033;-71
2022/12/03 03:58:41;;;;;;;9.90;5.35;;;21.20;54.20;;;;;;5000429;28;20040;-71
2022/12/03 04:01:10;;;;;;;10.02;5.68;;;21.10;54.20;;;;;;5071470;28;20081;-71
2022/12/03 04:03:36;;;;;;;12.45;5.55;;;21.10;54.10;;;;;;5071506;28;20028;-71
2022/12/03 04:06:03;;;;;;;10.65;5.22;;;21.20;54.10;;;;;;5071205;28;20441;-72
2022/12/03 04:08:29;;;;;;;10.18;5.95;;;21.20;53.80;;;;;;5071169;28;20040;-71
2022/12/03 04:13:39;;;;;;;14.55;6.30;;;21.30;53.80;;;;;;5070689;28;20037;-72
2022/12/03 04:16:06;;;;;;;8.93;5.35;;;21.40;53.70;;;;;;5071583;28;20049;-71
2022/12/03 04:18:43;;;;;;;10.80;6.28;;;21.40;53.60;;;;;;5019807;28;20174;-72
2022/12/03 04:24:01;;;;;;;8.98;5.55;;;21.40;53.50;;;;;;5071384;28;20466;-72
2022/12/03 04:29:13;;;;;;;8.50;5.15;;;21.40;53.50;;;;;;5070676;28;20046;-72
2022/12/03 04:37:09;;;;;;;12.40;5.68;;;21.20;53.50;;;;;;5050198;28;20036;-71
2022/12/03 04:39:35;;;;;;;15.45;5.97;;;21.20;53.60;;;;;;5050350;28;20045;-71
2022/12/03 04:42:02;;;;;;;9.18;5.82;;;21.10;53.80;;;;;;5050676;28;20052;-71
2022/12/03 04:44:32;;;;;;;11.35;6.13;;;21.00;53.90;;;;;;5050702;28;20048;-71
2022/12/03 04:46:59;;;;;;;10.90;5.95;;;21.10;53.90;;;;;;5050757;28;20037;-72
2022/12/03 04:49:25;;;;;;;7.97;5.55;;;21.00;53.80;;;;;;5051087;28;20037;-71
2022/12/03 04:51:51;;;;;;;9.32;5.03;;;21.10;53.90;;;;;;5050965;28;20037;-72
2022/12/03 04:54:17;;;;;;;8.90;5.13;;;21.30;53.40;;;;;;5050883;28;20063;-72
2022/12/03 04:56:44;;;;;;;11.27;5.93;;;21.50;52.80;;;;;;5050748;28;20037;-72
2022/12/03 04:59:10;;;;;;;12.75;5.30;;;21.70;52.30;;;;;;5050750;28;20115;-72
2022/12/03 05:01:36;;;;;;;9.30;5.72;;;21.80;52.00;;;;;;5032894;28;20025;-72
2022/12/03 05:04:03;;;;;;;8.90;5.10;;;21.90;52.00;;;;;;5032867;28;20187;-72
2022/12/03 05:06:29;;;;;;;8.88;5.18;;;21.90;52.10;;;;;;5032558;28;20395;-72
2022/12/03 05:08:54;;;;;;;9.77;6.18;;;22.00;52.00;;;;;;5050432;28;20094;-73
2022/12/03 05:11:20;;;;;;;10.52;6.45;;;22.00;51.90;;;;;;5050746;28;20481;-74
2022/12/03 05:13:47;;;;;;;12.18;6.00;;;22.00;52.60;;;;;;5050410;28;20090;-73
2022/12/03 05:16:13;;;;;;;11.77;6.50;;;21.70;53.50;;;;;;5050466;28;20090;-72
2022/12/03 05:18:38;;;;;;;12.48;6.90;;;22.00;58.30;;;;;;5051023;28;20060;-73
2022/12/03 05:21:05;;;;;;;12.35;6.57;;;22.70;60.00;;;;;;5068403;28;20037;-72
2022/12/03 05:23:31;;;;;;;10.25;6.03;;;22.80;61.30;;;;;;5070350;28;20508;-75
2022/12/03 05:25:57;;;;;;;12.55;6.03;;;23.00;63.10;;;;;;5074023;28;20033;-75
2022/12/03 05:28:23;;;;;;;7.50;5.13;;;23.00;55.80;;;;;;5074746;28;20043;-77
2022/12/03 05:30:50;;;;;;;14.57;7.25;;;23.00;53.80;;;;;;5074880;28;20033;-72
2022/12/03 05:33:16;;;;;;;14.90;6.90;;;23.00;51.80;;;;;;5040236;28;20028;-74
2022/12/03 05:35:42;;;;;;;12.65;7.05;;;22.70;50.20;;;;;;5038431;28;20036;-73
2022/12/03 05:38:08;;;;;;;12.02;6.93;;;22.50;50.20;;;;;;5074602;28;20473;-71
2022/12/03 05:40:34;;;;;;;17.77;7.25;;;22.20;50.70;;;;;;5074460;28;20028;-71
2022/12/03 05:43:00;;;;;;;13.32;6.72;;;22.10;51.40;;;;;;5074985;28;20472;-71
2022/12/03 05:45:31;;;;;;;12.65;6.68;;;21.90;52.10;;;;;;5074238;28;20466;-72
2022/12/03 05:47:58;;;;;;;10.43;6.20;;;21.80;52.90;;;;;;5074157;28;20485;-72
2022/12/03 05:50:27;;;;;;;13.75;7.20;;;21.70;53.40;;;;;;5074189;28;20056;-72
2022/12/03 05:52:53;;;;;;;11.88;6.90;;;21.60;53.70;;;;;;5074124;28;20029;-72
2022/12/03 05:55:20;;;;;;;10.50;6.50;;;21.70;53.70;;;;;;5073902;28;20032;-73
2022/12/03 05:57:46;;;;;;;15.57;6.72;;;21.60;53.70;;;;;;5073892;28;20036;-72
2022/12/03 06:00:22;;;;;;;11.35;6.13;;;21.70;54.00;;;;;;5074179;28;20028;-73
2022/12/03 06:02:48;;;;;;;14.30;6.75;;;21.80;57.70;;;;;;5073776;28;20446;-74
2022/12/03 06:05:15;;;;;;;23.40;14.02;;;22.10;59.30;;;;;;5071736;28;20033;-73
2022/12/03 06:07:42;;;;;;;17.67;11.07;;;22.50;60.30;;;;;;5036883;28;20385;-74
2022/12/03 06:10:10;;;;;;;17.88;9.52;;;22.80;58.70;;;;;;5053810;28;20048;-75
2022/12/03 06:12:36;;;;;;;17.20;11.77;;;22.90;59.00;;;;;;5053563;28;20117;-74
2022/12/03 06:15:03;;;;;;;39.67;17.13;;;23.00;61.80;;;;;;5052951;28;20425;-71
2022/12/03 06:17:29;;;;;;;57.88;23.45;;;23.20;52.80;;;;;;5052585;28;20033;-73
2022/12/03 06:19:55;;;;;;;47.70;16.88;;;23.00;52.20;;;;;;5052581;28;20083;-74
2022/12/03 06:22:21;;;;;;;37.38;15.15;;;23.20;46.60;;;;;;5053304;28;20437;-73
2022/12/03 06:24:47;;;;;;;36.35;15.90;;;23.00;49.80;;;;;;5053232;28;20025;-71
2022/12/03 06:27:13;;;;;;;17.98;10.05;;;23.20;59.90;;;;;;5053479;28;20490;-76
2022/12/03 06:29:39;;;;;;;24.15;11.10;;;23.30;48.00;;;;;;5053151;28;20041;-74
2022/12/03 06:32:05;;;;;;;30.20;12.38;;;23.30;47.60;;;;;;5053398;28;20036;-76
2022/12/03 06:34:32;;;;;;;33.92;11.43;;;23.30;57.00;;;;;;5001848;28;20116;-73
2022/12/03 06:36:58;;;;;;;26.83;12.43;;;23.50;51.00;;;;;;5052477;28;20493;-71
2022/12/03 06:39:23;;;;;;;22.75;9.43;;;23.60;55.30;;;;;;5053277;28;20029;-72
2022/12/03 06:41:50;;;;;;;15.02;8.38;;;23.70;51.50;;;;;;5053299;28;20090;-71
2022/12/03 06:44:16;;;;;;;11.50;6.72;;;23.80;45.50;;;;;;5053589;28;20038;-69
2022/12/03 06:46:42;;;;;;;21.60;8.98;;;23.70;45.90;;;;;;5053174;28;20082;-70
2022/12/03 06:49:08;;;;;;;111.30;22.83;;;23.60;45.20;;;;;;5053281;28;20067;-70
2022/12/03 06:51:35;;;;;;;15.93;7.57;;;23.70;53.10;;;;;;5053088;28;20044;-73
2022/12/03 06:54:01;;;;;;;17.95;8.52;;;23.70;45.10;;;;;;5053291;28;20474;-72
2022/12/03 06:56:27;;;;;;;14.70;9.38;;;23.80;46.60;;;;;;5053002;28;20450;-69
2022/12/03 06:58:53;;;;;;;9.18;5.30;;;23.70;45.30;;;;;;5053002;28;20127;-71
2022/12/03 07:01:19;;;;;;;13.98;7.85;;;23.60;42.70;;;;;;5052915;28;20032;-71
2022/12/03 07:03:46;;;;;;;12.43;8.18;;;23.60;44.10;;;;;;5057304;28;20033;-70
2022/12/03 07:06:12;;;;;;;11.82;8.35;;;23.70;44.10;;;;;;5061159;28;20052;-70
2022/12/03 07:08:38;;;;;;;11.07;7.47;;;23.50;41.60;;;;;;5045232;28;20398;-71
2022/12/03 07:11:29;;;;;;;13.15;7.28;;;23.70;55.40;;;;;;5059776;28;20037;-75
2022/12/03 07:13:50;;;;;;;12.65;7.28;;;23.80;55.10;;;;;;5060318;28;20033;-71
2022/12/03 07:16:16;;;;;;;8.98;5.50;;;23.70;54.20;;;;;;5059832;28;20140;-72
2022/12/03 07:18:42;;;;;;;14.88;7.72;;;23.60;55.10;;;;;;5042133;28;20040;-70
2022/12/03 07:21:08;;;;;;;10.85;7.00;;;23.60;55.20;;;;;;5062172;28;20051;-72
2022/12/03 07:23:34;;;;;;;11.35;7.32;;;23.50;56.20;;;;;;5059450;28;20532;-70
2022/12/03 07:26:00;;;;;;;10.90;6.00;;;23.30;55.60;;;;;;5054750;28;20025;-67
2022/12/03 07:28:26;;;;;;;7.32;4.80;;;23.30;55.70;;;;;;5052528;28;20068;-70
2022/12/03 07:30:52;;;;;;;7.18;4.57;;;23.30;55.30;;;;;;5045182;28;20028;-69
2022/12/03 07:33:18;;;;;;;11.25;6.68;;;23.40;56.00;;;;;;5062206;28;20028;-70
2022/12/03 07:35:44;;;;;;;9.15;6.07;;;23.60;56.00;;;;;;5057192;28;20107;-73
2022/12/03 07:38:10;;;;;;;7.70;5.55;;;23.60;55.00;;;;;;5061730;28;20127;-73
2022/12/03 07:40:36;;;;;;;10.55;5.25;;;23.50;53.00;;;;;;5060172;28;20025;-73
2022/12/03 07:43:02;;;;;;;10.75;5.10;;;23.50;51.90;;;;;;5062155;28;20028;-72
2022/12/03 07:45:28;;;;;;;12.38;5.95;;;23.50;51.70;;;;;;5062119;28;20028;-72
2022/12/03 07:47:54;;;;;;;9.75;5.32;;;23.50;51.50;;;;;;5042984;28;20032;-72
2022/12/03 07:50:20;;;;;;;9.73;5.75;;;23.60;50.80;;;;;;5056941;28;20468;-73
2022/12/03 07:52:46;;;;;;;9.32;5.82;;;23.70;50.30;;;;;;5062911;28;20073;-72
2022/12/03 07:55:12;;;;;;;14.32;7.95;;;23.80;50.20;;;;;;5056598;28;20481;-72
2022/12/03 07:57:38;;;;;;;12.00;7.00;;;23.60;50.30;;;;;;5059817;28;20035;-71
2022/12/03 08:00:06;;;;;;;10.82;6.30;;;23.60;50.30;;;;;;5058799;28;20024;-73
2022/12/03 08:02:32;;;;;;;14.73;8.32;;;23.50;50.60;;;;;;5044205;28;20056;-72
2022/12/03 08:04:57;;;;;;;13.10;7.53;;;23.50;51.50;;;;;;5060232;28;20068;-71
2022/12/03 08:07:23;;;;;;;9.63;6.07;;;23.30;52.10;;;;;;5061560;28;20135;-74
2022/12/03 08:09:49;;;;;;;12.07;7.53;;;23.10;53.00;;;;;;5061656;28;20037;-71
2022/12/03 08:12:38;;;;;;;12.23;6.95;;;22.90;53.30;;;;;;5062713;28;20033;-70
2022/12/03 08:15:15;;;;;;;11.65;6.18;;;22.80;54.10;;;;;;5060716;28;20040;-70
2022/12/03 08:17:42;;;;;;;12.85;8.00;;;22.70;54.80;;;;;;5060363;28;20107;-70
2022/12/03 08:20:20;;;;;;;13.35;6.13;;;22.60;55.60;;;;;;5063160;28;20094;-70
2022/12/03 08:22:50;;;;;;;9.25;6.95;;;22.40;55.70;;;;;;5060892;28;20029;-70
2022/12/03 08:25:19;;;;;;;10.00;6.60;;;22.30;56.10;;;;;;5059943;28;20410;-70
2022/12/03 08:27:45;;;;;;;10.40;6.47;;;22.30;56.50;;;;;;5061260;28;20112;-70
2022/12/03 08:30:13;;;;;;;13.15;7.10;;;22.20;56.70;;;;;;5061332;28;20103;-69
2022/12/03 08:32:39;;;;;;;10.15;6.65;;;22.30;56.80;;;;;;5059828;28;20470;-71
2022/12/03 08:35:20;;;;;;;10.07;5.38;;;22.20;57.00;;;;;;5043436;28;20099;-68
2022/12/03 08:38:14;;;;;;;10.57;6.70;;;22.30;48.40;;;;;;5060530;28;20116;-75
2022/12/03 08:40:42;;;;;;;11.80;5.82;;;22.70;47.70;;;;;;4988814;28;20468;-69
2022/12/03 08:43:32;;;;;;;11.75;5.45;;;23.00;44.40;;;;;;4989012;28;20481;-69
2022/12/03 08:45:58;;;;;;;9.48;6.38;;;23.30;44.30;;;;;;4988846;28;20046;-67
2022/12/03 08:48:33;;;;;;;11.38;6.20;;;23.30;41.40;;;;;;4988689;28;20041;-70
2022/12/03 08:51:24;;;;;;;11.10;6.97;;;23.60;50.60;;;;;;4956246;28;20070;-69
2022/12/03 08:53:56;;;;;;;8.05;5.13;;;23.30;51.90;;;;;;4980832;28;20189;-68
2022/12/03 08:56:27;;;;;;;10.38;5.65;;;23.20;53.00;;;;;;4988912;28;20042;-73
2022/12/03 08:59:01;;;;;;;10.80;5.78;;;23.10;52.70;;;;;;4988746;28;20122;-71
2022/12/03 09:01:40;;;;;;;11.70;6.05;;;23.10;52.90;;;;;;4989126;28;20685;-71
2022/12/03 09:04:20;;;;;;;9.30;5.95;;;23.00;53.70;;;;;;4988993;28;20050;-71
2022/12/03 09:06:46;;;;;;;12.65;6.18;;;22.90;54.40;;;;;;4989005;28;20081;-67
2022/12/03 09:09:12;;;;;;;11.93;6.47;;;22.70;55.00;;;;;;4965451;28;20463;-69
2022/12/03 09:11:38;;;;;;;7.35;5.43;;;22.70;55.80;;;;;;5027903;28;20048;-70
2022/12/03 09:14:05;;;;;;;9.43;6.38;;;22.60;56.00;;;;;;5028432;28;20030;-70
2022/12/03 09:16:31;;;;;;;10.75;6.32;;;22.60;57.60;;;;;;5032245;28;20057;-70
2022/12/03 09:18:57;;;;;;;8.63;6.22;;;22.60;60.80;;;;;;5071090;28;20033;-73
2022/12/03 09:21:23;;;;;;;11.63;6.13;;;22.50;60.90;;;;;;5070535;28;20025;-69
2022/12/03 09:23:49;;;;;;;10.75;6.45;;;22.50;59.70;;;;;;5034944;28;20448;-71
2022/12/03 09:26:15;;;;;;;9.85;6.22;;;22.60;59.40;;;;;;5070700;28;20500;-73
2022/12/03 09:28:41;;;;;;;11.32;6.40;;;22.50;59.90;;;;;;5069885;28;20059;-74
2022/12/03 09:31:07;;;;;;;9.95;5.80;;;22.60;60.90;;;;;;5069678;28;20086;-76
2022/12/03 09:33:33;;;;;;;15.32;7.45;;;22.60;59.00;;;;;;5086223;28;21442;-73
2022/12/03 09:35:59;;;;;;;10.88;7.38;;;22.50;57.60;;;;;;5090179;28;20020;-69
2022/12/03 09:38:25;;;;;;;12.60;7.60;;;22.60;57.50;;;;;;5054988;28;20048;-70
2022/12/03 09:40:52;;;;;;;11.88;7.30;;;22.60;57.60;;;;;;5070418;28;20040;-70
2022/12/03 09:43:19;;;;;;;8.55;6.25;;;22.50;58.50;;;;;;5070438;28;20045;-70
2022/12/03 09:45:46;;;;;;;9.77;6.15;;;22.50;58.80;;;;;;5070342;28;20044;-68
2022/12/03 09:48:18;;;;;;;10.80;6.57;;;22.40;59.00;;;;;;5069226;28;20432;-72
2022/12/03 09:50:44;;;;;;;9.13;5.50;;;22.50;59.30;;;;;;5070384;28;20090;-69
2022/12/03 09:53:15;;;;;;;8.25;5.40;;;22.50;59.30;;;;;;5069308;28;20393;-71
2022/12/03 09:55:44;;;;;;;9.57;6.13;;;22.40;58.90;;;;;;5069112;28;20082;-72
2022/12/03 09:58:12;;;;;;;10.40;6.30;;;22.40;59.50;;;;;;5070188;28;20059;-69
2022/12/03 10:00:40;;;;;;;6.85;5.47;;;22.80;59.70;;;;;;5069980;28;20488;-69
2022/12/03 10:03:12;;;;;;;7.57;5.50;;;23.30;48.80;;;;;;5051223;28;20101;-69
2022/12/03 10:05:39;;;;;;;8.98;6.38;;;23.30;42.00;;;;;;5067298;28;20129;-69
2022/12/03 10:08:09;;;;;;;7.65;5.18;;;23.50;40.40;;;;;;5051088;28;20047;-72
2022/12/03 10:10:37;;;;;;;6.72;5.40;;;23.70;37.50;;;;;;5086439;28;20469;-72
2022/12/03 10:13:04;;;;;;;6.88;5.57;;;23.70;39.10;;;;;;5090930;28;20032;-72
2022/12/03 10:15:31;;;;;;;10.82;6.13;;;23.80;51.60;;;;;;5091342;28;20080;-71
2022/12/03 10:17:58;;;;;;;9.18;6.05;;;23.90;52.40;;;;;;5091259;28;20040;-71
2022/12/03 10:20:25;;;;;;;7.18;5.22;;;23.80;52.40;;;;;;5091030;28;20126;-72
2022/12/03 10:22:51;;;;;;;8.77;5.38;;;23.50;53.50;;;;;;5057159;28;20048;-70
2022/12/03 10:25:22;;;;;;;9.07;6.22;;;23.50;54.90;;;;;;5090925;28;20082;-67
2022/12/03 10:28:25;;;;;;;10.15;6.13;;;23.40;55.70;;;;;;5090516;28;20035;-66
2022/12/03 10:30:55;;;;;;;6.43;5.00;;;23.20;56.60;;;;;;4977677;28;20077;-69
2022/12/03 10:33:27;;;;;;;7.55;5.53;;;23.10;57.20;;;;;;4977582;28;20056;-67
2022/12/03 10:35:53;;;;;;;8.90;5.40;;;22.90;57.40;;;;;;4997552;28;20403;-71
2022/12/03 10:38:23;;;;;;;8.82;5.47;;;23.00;57.70;;;;;;5031070;28;20049;-72
2022/12/03 10:40:49;;;;;;;10.88;6.28;;;23.00;58.30;;;;;;5030705;28;20049;-68
2022/12/03 10:43:18;;;;;;;8.90;5.50;;;23.00;60.10;;;;;;5014476;28;20049;-71
2022/12/03 10:46:08;;;;;;;7.70;5.25;;;22.90;50.70;;;;;;5030820;28;20596;-71
2022/12/03 10:48:34;;;;;;;7.25;4.53;;;23.20;46.20;;;;;;5030815;28;20112;-68
2022/12/03 10:51:02;;;;;;;16.70;7.07;;;23.40;45.30;;;;;;5030593;28;20125;-67
2022/12/03 10:53:31;;;;;;;17.75;6.93;;;23.60;45.00;;;;;;5030796;28;20043;-70
2022/12/03 10:56:00;;;;;;;8.52;5.88;;;23.80;44.40;;;;;;5030545;28;20516;-71
2022/12/03 10:58:29;;;;;;;10.27;5.05;;;23.90;47.90;;;;;;5030859;28;20431;-72
2022/12/03 11:00:56;;;;;;;8.65;4.82;;;24.40;55.30;;;;;;5030550;28;20057;-69
2022/12/03 11:03:25;;;;;;;7.28;5.55;;;24.90;48.30;;;;;;5027386;28;20041;-70
2022/12/03 11:05:53;;;;;;;11.18;6.35;;;24.90;43.60;;;;;;4969130;28;20733;-71
2022/12/03 11:08:23;;;;;;;10.80;6.82;;;24.60;45.40;;;;;;5038838;28;20160;-70
2022/12/03 11:11:17;;;;;;;10.20;6.93;;;24.70;40.90;;;;;;5064934;28;20053;-71
2022/12/03 11:13:55;;;;;;;9.50;7.07;;;24.50;40.40;;;;;;5062881;28;20524;-73
2022/12/03 11:16:39;;;;;;;15.15;7.93;;;24.60;37.70;;;;;;5062256;28;20114;-68
2022/12/03 11:19:11;;;;;;;11.88;8.25;;;24.40;39.50;;;;;;5062455;28;20057;-70
2022/12/03 11:22:03;;;;;;;13.63;8.85;;;24.40;43.80;;;;;;5063199;28;20079;-70
2022/12/03 11:24:33;;;;;;;15.07;7.65;;;24.50;41.50;;;;;;5062714;28;20069;-69
2022/12/03 11:26:59;;;;;;;10.90;6.78;;;24.70;49.30;;;;;;5061740;28;20021;-70
2022/12/03 11:29:46;;;;;;;13.63;6.53;;;24.60;50.50;;;;;;5062243;28;20063;-71
2022/12/03 11:32:37;;;;;;;12.80;7.15;;;24.60;50.70;;;;;;5068854;28;20441;-71
2022/12/03 11:35:22;;;;;;;12.63;6.55;;;24.60;51.00;;;;;;5020323;28;20111;-71
2022/12/03 11:37:48;;;;;;;10.73;5.95;;;24.40;51.70;;;;;;5068896;28;20028;-71
2022/12/03 11:40:17;;;;;;;9.82;5.32;;;24.30;52.50;;;;;;5072564;28;20116;-72
2022/12/03 11:42:45;;;;;;;11.18;5.32;;;24.20;53.00;;;;;;5072104;28;20031;-70
2022/12/03 11:45:19;;;;;;;8.70;6.07;;;24.10;53.50;;;;;;5072281;28;20054;-70
2022/12/03 11:48:01;;;;;;;8.43;5.22;;;24.00;53.70;;;;;;5072270;28;20365;-71
2022/12/03 11:50:38;;;;;;;10.00;6.15;;;23.90;54.00;;;;;;5072201;28;20103;-71
2022/12/03 11:53:12;;;;;;;9.98;5.97;;;23.80;54.20;;;;;;5054245;28;20032;-70
2022/12/03 11:55:43;;;;;;;7.90;5.88;;;23.70;54.70;;;;;;5072109;28;20027;-69
2022/12/03 11:58:17;;;;;;;8.90;5.55;;;23.60;55.30;;;;;;5035830;28;20037;-70
2022/12/03 12:00:51;;;;;;;8.15;5.57;;;23.50;55.60;;;;;;5059163;28;20123;-69
2022/12/03 12:03:28;;;;;;;8.27;5.22;;;23.50;55.60;;;;;;5051953;28;20028;-71
2022/12/03 12:06:05;;;;;;;7.72;5.47;;;23.50;49.50;;;;;;5058034;28;20120;-69
2022/12/03 12:08:34;;;;;;;8.13;5.90;;;23.60;49.10;;;;;;5052289;28;20029;-69
2022/12/03 12:11:01;;;;;;;9.93;6.30;;;23.90;49.50;;;;;;5054436;28;20044;-69
2022/12/03 12:13:47;;;;;;;7.22;5.25;;;24.10;51.30;;;;;;5051274;28;20025;-69
2022/12/03 12:16:35;;;;;;;8.57;5.15;;;24.50;51.00;;;;;;5058844;28;20111;-69
2022/12/03 12:19:46;;;;;;;11.93;5.95;;;25.00;44.70;;;;;;5071335;28;20048;-69
2022/12/03 12:22:18;;;;;;;9.65;5.85;;;24.70;49.90;;;;;;4969964;28;20034;-68
2022/12/03 12:24:50;;;;;;;8.20;5.65;;;24.80;50.90;;;;;;4977082;28;20427;-69
2022/12/03 12:27:38;;;;;;;8.00;6.20;;;24.50;51.20;;;;;;4989346;28;20042;-70
2022/12/03 12:30:16;;;;;;;10.20;5.57;;;24.50;51.60;;;;;;4989579;28;20038;-72
2022/12/03 12:32:51;;;;;;;10.90;6.45;;;24.40;52.30;;;;;;4989488;28;20481;-69
2022/12/03 12:35:29;;;;;;;12.85;5.53;;;24.30;52.30;;;;;;4988851;28;20491;-69
2022/12/03 12:38:05;;;;;;;14.32;5.82;;;24.30;52.60;;;;;;4989407;28;20030;-70
2022/12/03 12:40:34;;;;;;;8.15;5.80;;;24.00;53.10;;;;;;4971389;28;20122;-68
2022/12/03 12:43:10;;;;;;;8.77;5.43;;;24.00;54.30;;;;;;4968832;28;20047;-69
2022/12/03 12:45:41;;;;;;;14.77;6.53;;;23.90;54.70;;;;;;4968729;28;20055;-66
2022/12/03 12:48:46;;;;;;;9.98;5.90;;;23.80;54.90;;;;;;4969534;28;20126;-66
2022/12/03 12:51:18;;;;;;;9.80;6.25;;;23.70;55.20;;;;;;4969945;28;20065;-69
2022/12/03 12:53:44;;;;;;;7.07;5.47;;;23.70;55.10;;;;;;4969819;28;20050;-70
2022/12/03 12:56:28;;;;;;;11.68;6.80;;;23.60;56.90;;;;;;4969562;28;20371;-69
2022/12/03 12:59:10;;;;;;;11.60;7.53;;;23.50;59.20;;;;;;4987392;28;20128;-69
2022/12/03 13:01:36;;;;;;;14.88;7.35;;;23.60;58.40;;;;;;5008617;28;20080;-67
2022/12/03 13:04:14;;;;;;;10.70;6.45;;;23.50;57.80;;;;;;5008544;28;20034;-68
2022/12/03 13:06:40;;;;;;;13.18;7.80;;;23.40;57.40;;;;;;4975982;28;20137;-68